createdAt,value
2023-04-26T00:00:00.998Z,3.60
2023-04-26T00:05:01.000Z,3.54
2023-04-26T00:10:00.601Z,3.43
2023-04-26T00:15:00.601Z,3.39
2023-04-26T00:20:00.545Z,3.33
2023-04-26T00:25:00.537Z,3.34
2023-04-26T00:30:00.510Z,3.34
2023-04-26T00:35:02.326Z,3.32
2023-04-26T00:40:00.478Z,3.27
2023-04-26T00:45:00.853Z,3.21
2023-04-26T00:50:00.823Z,3.17
2023-04-26T00:55:01.508Z,3.07
2023-04-26T01:00:01.095Z,3.01
2023-04-26T01:05:00.525Z,3.02
2023-04-26T01:10:00.512Z,2.96
2023-04-26T01:15:00.752Z,2.90
2023-04-26T01:20:00.501Z,2.87
2023-04-26T01:25:03.391Z,2.79
2023-04-26T01:30:00.658Z,2.76
2023-04-26T01:35:00.928Z,2.77
2023-04-26T01:40:00.563Z,2.81
2023-04-26T01:45:00.566Z,2.74
2023-04-26T01:50:00.468Z,2.71
2023-04-26T01:55:00.608Z,2.62
2023-04-26T02:00:01.077Z,2.60
2023-04-26T02:05:00.526Z,2.59
2023-04-26T02:10:00.494Z,2.60
2023-04-26T02:15:00.494Z,2.52
2023-04-26T02:20:00.497Z,2.47
2023-04-26T02:25:00.517Z,2.41
2023-04-26T02:30:00.477Z,2.41
2023-04-26T02:35:00.493Z,2.41
2023-04-26T02:40:00.534Z,2.36
2023-04-26T02:45:00.512Z,2.35
2023-04-26T02:50:00.473Z,2.30
2023-04-26T02:55:01.932Z,2.27
2023-04-26T03:00:01.107Z,2.26
2023-04-26T03:05:00.595Z,2.25
2023-04-26T03:10:00.502Z,2.26
2023-04-26T03:15:00.473Z,2.26
2023-04-26T03:20:02.553Z,2.25
2023-04-26T03:25:00.680Z,2.22
2023-04-26T03:30:00.494Z,2.16
2023-04-26T03:35:00.510Z,2.14
2023-04-26T03:40:00.546Z,2.14
2023-04-26T03:45:00.503Z,2.11
2023-04-26T03:50:00.527Z,2.08
2023-04-26T03:55:00.569Z,2.08
2023-04-26T04:00:02.752Z,2.06
2023-04-26T04:05:00.882Z,2.05
2023-04-26T04:10:00.539Z,2.02
2023-04-26T04:15:00.950Z,1.97
2023-04-26T04:20:01.861Z,1.89
2023-04-26T04:25:00.599Z,1.92
2023-04-26T04:30:00.584Z,1.96
2023-04-26T04:35:00.753Z,2.04
2023-04-26T04:40:00.577Z,2.08
2023-04-26T04:45:00.514Z,2.10
2023-04-26T04:50:00.513Z,2.22
2023-04-26T04:55:00.496Z,2.32
2023-04-26T05:00:01.024Z,2.42
2023-04-26T05:05:00.577Z,2.52
2023-04-26T05:10:00.548Z,2.66
2023-04-26T05:15:00.512Z,2.79
2023-04-26T05:20:00.518Z,2.96
2023-04-26T05:25:00.520Z,3.14
2023-04-26T05:30:00.464Z,3.34
2023-04-26T05:35:00.467Z,3.57
2023-04-26T05:40:00.665Z,3.84
2023-04-26T05:45:00.555Z,4.04
2023-04-26T05:50:00.495Z,4.19
2023-04-26T05:55:00.699Z,4.34
2023-04-26T06:00:03.655Z,4.47
2023-04-26T06:05:00.587Z,4.54
2023-04-26T06:10:00.589Z,4.70
2023-04-26T06:15:00.479Z,4.88
2023-04-26T06:20:00.846Z,5.07
2023-04-26T06:25:00.567Z,5.23
2023-04-26T06:30:00.648Z,5.61
2023-04-26T06:35:00.562Z,5.93
2023-04-26T06:40:00.572Z,6.21
2023-04-26T06:45:00.452Z,6.42
2023-04-26T06:50:00.670Z,6.62
2023-04-26T06:55:01.164Z,6.89
2023-04-26T07:00:00.943Z,7.18
2023-04-26T07:05:00.770Z,7.31
2023-04-26T07:10:00.560Z,7.41
2023-04-26T07:15:00.496Z,7.54
2023-04-26T07:20:00.486Z,7.75
2023-04-26T07:25:00.534Z,7.94
2023-04-26T07:30:00.482Z,7.98
2023-04-26T07:35:01.903Z,8.20
2023-04-26T07:40:00.530Z,8.32
2023-04-26T07:45:00.526Z,8.24
2023-04-26T07:50:00.604Z,8.41
2023-04-26T07:55:00.502Z,8.10
2023-04-26T08:00:02.493Z,7.93
2023-04-26T08:05:00.988Z,8.48
2023-04-26T08:10:00.496Z,8.85
2023-04-26T08:15:00.846Z,9.23
2023-04-26T08:20:00.493Z,9.73
2023-04-26T08:25:00.597Z,10.51
2023-04-26T08:30:00.475Z,9.97
2023-04-26T08:35:00.553Z,9.48
2023-04-26T08:40:00.656Z,10.21
2023-04-26T08:45:00.590Z,10.01
2023-04-26T08:50:01.092Z,9.73
2023-04-26T08:55:01.685Z,9.31
2023-04-26T09:00:03.393Z,9.43
2023-04-26T09:05:00.797Z,9.78
2023-04-26T09:10:03.280Z,10.20
2023-04-26T09:15:00.836Z,10.02
2023-04-26T09:20:01.420Z,9.63
2023-04-26T09:25:02.295Z,9.66
2023-04-26T09:30:11.460Z,9.80
2023-04-26T09:35:00.460Z,10.52
2023-04-26T09:40:00.493Z,11.61
2023-04-26T09:45:08.143Z,11.91
2023-04-26T09:50:00.494Z,11.15
2023-04-26T09:55:00.494Z,10.35
2023-04-26T10:00:05.815Z,9.72
2023-04-26T10:05:00.975Z,9.49
2023-04-26T10:10:01.383Z,9.32
2023-04-26T10:15:02.733Z,9.19
2023-04-26T10:20:01.738Z,9.14
2023-04-26T10:25:00.586Z,9.15
2023-04-26T10:30:01.524Z,9.20
2023-04-26T10:35:09.605Z,9.27
2023-04-26T10:40:20.371Z,9.39
2023-04-26T10:45:20.371Z,9.48
2023-04-26T10:50:05.628Z,9.52
2023-04-26T10:55:00.785Z,9.64
2023-04-26T11:00:07.913Z,9.77
2023-04-26T11:05:01.699Z,10.00
2023-04-26T11:10:00.521Z,10.02
2023-04-26T11:15:00.489Z,10.12
2023-04-26T11:20:07.840Z,10.28
2023-04-26T11:25:00.488Z,10.45
2023-04-26T11:30:02.621Z,10.61
2023-04-26T11:35:00.460Z,10.59
2023-04-26T11:40:00.548Z,10.55
2023-04-26T11:45:00.542Z,10.72
2023-04-26T11:50:00.882Z,10.89
2023-04-26T11:55:02.637Z,10.97
2023-04-26T12:00:10.070Z,11.09
2023-04-26T12:05:00.701Z,11.25
2023-04-26T12:10:14.539Z,11.42
2023-04-26T12:15:00.515Z,11.65
2023-04-26T12:20:07.931Z,11.93
2023-04-26T12:25:08.235Z,12.00
2023-04-26T12:30:00.480Z,12.05
2023-04-26T12:35:00.460Z,12.10
2023-04-26T12:40:00.524Z,12.03
2023-04-26T12:45:00.476Z,11.95
2023-04-26T12:50:00.516Z,12.20
2023-04-26T12:55:00.521Z,12.86
2023-04-26T13:00:00.894Z,13.05
2023-04-26T13:05:01.353Z,13.03
2023-04-26T13:10:01.215Z,12.73
2023-04-26T13:15:00.537Z,12.47
2023-04-26T13:20:01.016Z,12.43
2023-04-26T13:25:00.579Z,12.47
2023-04-26T13:30:00.482Z,13.00
2023-04-26T13:35:00.554Z,13.94
2023-04-26T13:40:00.560Z,13.77
2023-04-26T13:45:00.502Z,13.82
2023-04-26T13:50:00.618Z,14.03
2023-04-26T13:55:00.542Z,13.54
2023-04-26T14:00:02.000Z,12.97
2023-04-26T14:05:00.703Z,12.77
2023-04-26T14:10:00.548Z,12.63
2023-04-26T14:15:00.492Z,12.69
2023-04-26T14:20:00.523Z,12.44
2023-04-26T14:25:00.502Z,12.24
2023-04-26T14:30:00.505Z,12.05
2023-04-26T14:35:00.473Z,11.97
2023-04-26T14:40:00.549Z,11.87
2023-04-26T14:45:00.590Z,11.98
2023-04-26T14:50:00.474Z,12.00
2023-04-26T14:55:02.917Z,11.97
2023-04-26T15:00:00.814Z,12.09
2023-04-26T15:05:00.904Z,12.06
2023-04-26T15:10:00.496Z,12.00
2023-04-26T15:15:00.911Z,11.98
2023-04-26T15:20:00.534Z,11.93
2023-04-26T15:25:00.652Z,11.76
2023-04-26T15:30:01.447Z,11.54
2023-04-26T15:35:00.669Z,11.38
2023-04-26T15:40:00.485Z,11.21
2023-04-26T15:45:00.672Z,11.16
2023-04-26T15:50:01.464Z,11.08
2023-04-26T15:55:01.422Z,11.03
2023-04-26T16:00:01.064Z,11.03
2023-04-26T16:05:00.711Z,11.06
2023-04-26T16:10:00.500Z,11.08
2023-04-26T16:15:00.490Z,11.11
2023-04-26T16:20:01.820Z,11.14
2023-04-26T16:25:01.188Z,11.22
2023-04-26T16:30:00.541Z,11.15
2023-04-26T16:35:00.485Z,11.12
2023-04-26T16:40:00.675Z,11.08
2023-04-26T16:45:00.521Z,11.06
2023-04-26T16:50:00.749Z,11.04
2023-04-26T16:55:00.496Z,10.77
2023-04-26T17:00:00.993Z,10.45
2023-04-26T17:05:00.595Z,10.31
2023-04-26T17:10:00.497Z,10.26
2023-04-26T17:15:02.953Z,10.28
2023-04-26T17:20:00.463Z,10.21
2023-04-26T17:25:00.548Z,10.12
2023-04-26T17:30:00.534Z,10.04
2023-04-26T17:35:00.501Z,9.96
2023-04-26T17:40:00.558Z,9.88
2023-04-26T17:45:00.494Z,9.83
2023-04-26T17:50:00.480Z,9.73
2023-04-26T17:55:00.485Z,9.63
2023-04-26T18:00:01.128Z,9.55
2023-04-26T18:05:00.645Z,9.48
2023-04-26T18:10:00.496Z,9.40
2023-04-26T18:15:00.534Z,9.31
2023-04-26T18:20:00.487Z,9.16
2023-04-26T18:25:00.482Z,9.03
2023-04-26T18:30:00.519Z,8.94
2023-04-26T18:35:00.485Z,8.85
2023-04-26T18:40:00.556Z,8.75
2023-04-26T18:45:00.471Z,8.68
2023-04-26T18:50:00.661Z,8.59
2023-04-26T18:55:00.668Z,8.52
2023-04-26T19:00:01.820Z,8.47
2023-04-26T19:05:00.862Z,8.41
2023-04-26T19:10:00.863Z,8.35
2023-04-26T19:15:00.467Z,8.27
2023-04-26T19:20:00.531Z,8.19
2023-04-26T19:25:00.662Z,8.08
2023-04-26T19:30:00.496Z,7.98
2023-04-26T19:35:00.484Z,7.91
2023-04-26T19:40:00.525Z,7.81
2023-04-26T19:45:00.575Z,7.75
2023-04-26T19:50:00.589Z,7.69
2023-04-26T19:55:00.470Z,7.63
2023-04-26T20:00:02.226Z,7.53
2023-04-26T20:05:00.474Z,7.44
2023-04-26T20:10:00.478Z,7.36
2023-04-26T20:15:00.464Z,7.28
2023-04-26T20:20:00.470Z,7.19
2023-04-26T20:25:00.530Z,7.12
2023-04-26T20:30:00.790Z,7.03
2023-04-26T20:35:00.502Z,6.94
2023-04-26T20:40:01.171Z,6.84
2023-04-26T20:45:02.160Z,6.72
2023-04-26T20:50:00.506Z,6.60
2023-04-26T20:55:00.536Z,6.48
2023-04-26T21:00:01.169Z,6.36
2023-04-26T21:05:00.531Z,6.25
2023-04-26T21:10:00.479Z,6.15
2023-04-26T21:15:00.550Z,6.09
2023-04-26T21:20:00.519Z,6.02
2023-04-26T21:25:00.477Z,5.98
2023-04-26T21:30:00.471Z,5.91
2023-04-26T21:35:00.494Z,5.84
2023-04-26T21:40:00.532Z,5.78
2023-04-26T21:45:00.476Z,5.71
2023-04-26T21:50:00.499Z,5.61
2023-04-26T21:55:00.547Z,5.55
2023-04-26T22:00:01.104Z,5.47
2023-04-26T22:05:00.473Z,5.43
2023-04-26T22:10:00.559Z,5.37
2023-04-26T22:15:00.486Z,5.27
2023-04-26T22:20:00.554Z,5.20
2023-04-26T22:25:00.516Z,5.16
2023-04-26T22:30:06.286Z,5.12
2023-04-26T22:35:00.505Z,5.06
2023-04-26T22:40:00.582Z,5.00
2023-04-26T22:45:00.495Z,4.94
2023-04-26T22:50:00.720Z,4.84
2023-04-26T22:55:00.498Z,4.72
2023-04-26T23:00:02.101Z,4.60
2023-04-26T23:05:00.604Z,4.56
2023-04-26T23:10:00.628Z,4.54
2023-04-26T23:15:00.816Z,4.51
2023-04-26T23:20:00.485Z,4.49
2023-04-26T23:25:00.459Z,4.46
2023-04-26T23:30:00.651Z,4.41
2023-04-26T23:35:00.550Z,4.33
2023-04-26T23:40:00.526Z,4.29
2023-04-26T23:45:00.498Z,4.28
2023-04-26T23:50:00.488Z,4.23
2023-04-26T23:55:00.472Z,4.18
